sensor_id;sensor_type;location;lat;lon;timestamp;pressure;altitude;pressure_sealevel;temperature;humidity
57606;BME280;43430;48.204;11.556;2022-10-31T00:01:12;96541.28;;;9.40;100.00
57606;BME280;43430;48.204;11.556;2022-10-31T00:03:37;96539.25;;;9.29;100.00
57606;BME280;43430;48.204;11.556;2022-10-31T00:06:03;96541.25;;;9.27;100.00
57606;BME280;43430;48.204;11.556;2022-10-31T00:08:28;96543.88;;;9.27;100.00
57606;BME280;43430;48.204;11.556;2022-10-31T00:10:53;96541.88;;;9.29;100.00
57606;BME280;43430;48.204;11.556;2022-10-31T00:13:19;96542.47;;;9.38;100.00
57606;BME280;43430;48.204;11.556;2022-10-31T00:15:44;96538.03;;;9.38;100.00
57606;BME280;43430;48.204;11.556;2022-10-31T00:18:10;96535.78;;;9.35;100.00
57606;BME280;43430;48.204;11.556;2022-10-31T00:20:36;96539.00;;;9.24;100.00
57606;BME280;43430;48.204;11.556;2022-10-31T00:23:02;96538.22;;;9.30;100.00
57606;BME280;43430;48.204;11.556;2022-10-31T00:25:32;96549.34;;;9.32;100.00
57606;BME280;43430;48.204;11.556;2022-10-31T00:27:58;96548.78;;;9.43;100.00
57606;BME280;43430;48.204;11.556;2022-10-31T00:30:23;96548.16;;;9.41;100.00
57606;BME280;43430;48.204;11.556;2022-10-31T00:32:48;96542.50;;;9.44;100.00
57606;BME280;43430;48.204;11.556;2022-10-31T00:35:15;96541.28;;;9.40;100.00
57606;BME280;43430;48.204;11.556;2022-10-31T00:37:40;96542.88;;;9.41;100.00
57606;BME280;43430;48.204;11.556;2022-10-31T00:40:06;96533.38;;;9.40;100.00
57606;BME280;43430;48.204;11.556;2022-10-31T00:42:31;96532.97;;;9.37;100.00
57606;BME280;43430;48.204;11.556;2022-10-31T00:44:57;96537.22;;;9.38;100.00
57606;BME280;43430;48.204;11.556;2022-10-31T00:47:22;96539.63;;;9.39;100.00
57606;BME280;43430;48.204;11.556;2022-10-31T00:49:47;96550.19;;;9.46;100.00
57606;BME280;43430;48.204;11.556;2022-10-31T00:52:13;96548.16;;;9.41;100.00
57606;BME280;43430;48.204;11.556;2022-10-31T00:54:38;96542.88;;;9.41;100.00
57606;BME280;43430;48.204;11.556;2022-10-31T00:57:03;96546.94;;;9.37;100.00
57606;BME280;43430;48.204;11.556;2022-10-31T00:59:28;96540.47;;;9.33;100.00
57606;BME280;43430;48.204;11.556;2022-10-31T01:01:54;96544.91;;;9.26;100.00
57606;BME280;43430;48.204;11.556;2022-10-31T01:04:19;96539.63;;;9.26;100.00
57606;BME280;43430;48.204;11.556;2022-10-31T01:06:44;96534.78;;;9.23;100.00
57606;BME280;43430;48.204;11.556;2022-10-31T01:09:10;96540.03;;;9.23;100.00
57606;BME280;43430;48.204;11.556;2022-10-31T01:11:35;96539.44;;;9.27;100.00
57606;BME280;43430;48.204;11.556;2022-10-31T01:14:00;96533.16;;;9.28;100.00
57606;BME280;43430;48.204;11.556;2022-10-31T01:16:27;96532.94;;;9.23;100.00
57606;BME280;43430;48.204;11.556;2022-10-31T01:18:54;96527.44;;;9.18;100.00
57606;BME280;43430;48.204;11.556;2022-10-31T01:21:23;96530.69;;;9.14;100.00
57606;BME280;43430;48.204;11.556;2022-10-31T01:23:49;96532.31;;;9.15;100.00
57606;BME280;43430;48.204;11.556;2022-10-31T01:26:18;96533.72;;;9.11;100.00
57606;BME280;43430;48.204;11.556;2022-10-31T01:28:59;96534.13;;;9.14;100.00
57606;BME280;43430;48.204;11.556;2022-10-31T01:31:33;96536.97;;;9.13;100.00
57606;BME280;43430;48.204;11.556;2022-10-31T01:33:59;96541.19;;;9.07;100.00
57606;BME280;43430;48.204;11.556;2022-10-31T01:36:27;96538.78;;;9.06;100.00
57606;BME280;43430;48.204;11.556;2022-10-31T01:38:56;96539.75;;;9.04;100.00
57606;BME280;43430;48.204;11.556;2022-10-31T01:41:25;96546.47;;;9.07;100.00
57606;BME280;43430;48.204;11.556;2022-10-31T01:44:01;96556.78;;;9.09;100.00
57606;BME280;43430;48.204;11.556;2022-10-31T01:46:34;96554.94;;;9.02;100.00
57606;BME280;43430;48.204;11.556;2022-10-31T01:49:06;96558.78;;;9.00;100.00
57606;BME280;43430;48.204;11.556;2022-10-31T01:51:37;96557.19;;;9.06;100.00
57606;BME280;43430;48.204;11.556;2022-10-31T01:54:06;96550.13;;;9.13;100.00
57606;BME280;43430;48.204;11.556;2022-10-31T01:56:34;96550.94;;;9.13;100.00
57606;BME280;43430;48.204;11.556;2022-10-31T01:59:05;96541.22;;;9.14;100.00
57606;BME280;43430;48.204;11.556;2022-10-31T02:01:33;96542.41;;;9.11;100.00
57606;BME280;43430;48.204;11.556;2022-10-31T02:03:59;96547.09;;;9.16;100.00
57606;BME280;43430;48.204;11.556;2022-10-31T02:09:02;96549.06;;;9.00;100.00
57606;BME280;43430;48.204;11.556;2022-10-31T02:11:29;96550.06;;;8.99;100.00
57606;BME280;43430;48.204;11.556;2022-10-31T02:13:54;96548.91;;;9.09;100.00
57606;BME280;43430;48.204;11.556;2022-10-31T02:16:20;96542.03;;;9.14;100.00
57606;BME280;43430;48.204;11.556;2022-10-31T02:18:45;96535.31;;;9.12;100.00
57606;BME280;43430;48.204;11.556;2022-10-31T02:21:27;96543.63;;;9.09;100.00
57606;BME280;43430;48.204;11.556;2022-10-31T02:24:17;96537.53;;;9.08;100.00
57606;BME280;43430;48.204;11.556;2022-10-31T02:26:53;96547.88;;;9.03;100.00
57606;BME280;43430;48.204;11.556;2022-10-31T02:32:38;96549.69;;;9.02;100.00
57606;BME280;43430;48.204;11.556;2022-10-31T02:35:20;96539.59;;;9.06;100.00
57606;BME280;43430;48.204;11.556;2022-10-31T02:43:29;96535.91;;;9.00;100.00
57606;BME280;43430;48.204;11.556;2022-10-31T02:46:19;96535.91;;;9.00;100.00
57606;BME280;43430;48.204;11.556;2022-10-31T02:48:51;96540.38;;;9.00;100.00
57606;BME280;43430;48.204;11.556;2022-10-31T02:51:18;96538.53;;;9.00;100.00
57606;BME280;43430;48.204;11.556;2022-10-31T02:53:44;96546.81;;;8.97;100.00
57606;BME280;43430;48.204;11.556;2022-10-31T02:56:15;96545.00;;;8.91;100.00
57606;BME280;43430;48.204;11.556;2022-10-31T02:59:07;96541.94;;;8.94;100.00
57606;BME280;43430;48.204;11.556;2022-10-31T03:01:33;96539.94;;;8.90;100.00
57606;BME280;43430;48.204;11.556;2022-10-31T03:06:35;96537.91;;;8.85;100.00
57606;BME280;43430;48.204;11.556;2022-10-31T03:12:37;96535.84;;;8.80;100.00
57606;BME280;43430;48.204;11.556;2022-10-31T03:14:51;96526.94;;;8.75;100.00
57606;BME280;43430;48.204;11.556;2022-10-31T03:17:26;96535.38;;;8.70;100.00
57606;BME280;43430;48.204;11.556;2022-10-31T03:19:55;96538.44;;;8.74;100.00
57606;BME280;43430;48.204;11.556;2022-10-31T03:22:26;96545.94;;;8.77;100.00
57606;BME280;43430;48.204;11.556;2022-10-31T03:24:54;96545.16;;;8.83;100.00
57606;BME280;43430;48.204;11.556;2022-10-31T03:27:25;96550.84;;;8.87;100.00
57606;BME280;43430;48.204;11.556;2022-10-31T03:29:54;96547.63;;;8.91;100.00
57606;BME280;43430;48.204;11.556;2022-10-31T03:32:26;96544.38;;;8.89;100.00
57606;BME280;43430;48.204;11.556;2022-10-31T03:34:56;96546.38;;;8.87;100.00
57606;BME280;43430;48.204;11.556;2022-10-31T03:37:23;96544.00;;;8.92;100.00
57606;BME280;43430;48.204;11.556;2022-10-31T03:39:51;96544.00;;;8.92;100.00
57606;BME280;43430;48.204;11.556;2022-10-31T03:42:21;96536.25;;;8.84;100.00
57606;BME280;43430;48.204;11.556;2022-10-31T03:45:04;96527.34;;;8.78;100.00
57606;BME280;43430;48.204;11.556;2022-10-31T03:47:32;96527.75;;;8.75;100.00
57606;BME280;43430;48.204;11.556;2022-10-31T03:49:58;96528.72;;;8.68;100.00
57606;BME280;43430;48.204;11.556;2022-10-31T03:52:27;96535.34;;;8.57;100.00
57606;BME280;43430;48.204;11.556;2022-10-31T03:54:59;96542.59;;;8.55;100.00
57606;BME280;43430;48.204;11.556;2022-10-31T03:57:33;96544.78;;;8.45;100.00
57606;BME280;43430;48.204;11.556;2022-10-31T04:00:10;96545.78;;;8.44;100.00
57606;BME280;43430;48.204;11.556;2022-10-31T04:02:40;96545.00;;;8.43;100.00
57606;BME280;43430;48.204;11.556;2022-10-31T04:05:07;96546.28;;;8.26;100.00
57606;BME280;43430;48.204;11.556;2022-10-31T04:07:39;96547.72;;;8.35;100.00
57606;BME280;43430;48.204;11.556;2022-10-31T04:10:08;96541.66;;;8.35;100.00
57606;BME280;43430;48.204;11.556;2022-10-31T04:12:35;96544.06;;;8.36;100.00
57606;BME280;43430;48.204;11.556;2022-10-31T04:15:06;96548.53;;;8.36;100.00
57606;BME280;43430;48.204;11.556;2022-10-31T04:17:34;96544.91;;;8.37;100.00
57606;BME280;43430;48.204;11.556;2022-10-31T04:20:02;96541.31;;;8.38;100.00
57606;BME280;43430;48.204;11.556;2022-10-31T04:22:28;96536.78;;;8.31;100.00
57606;BME280;43430;48.204;11.556;2022-10-31T04:24:53;96540.38;;;8.24;100.00
57606;BME280;43430;48.204;11.556;2022-10-31T04:27:19;96539.56;;;8.23;100.00
57606;BME280;43430;48.204;11.556;2022-10-31T04:29:44;96542.16;;;8.17;100.00
57606;BME280;43430;48.204;11.556;2022-10-31T04:32:09;96539.50;;;8.10;100.00
57606;BME280;43430;48.204;11.556;2022-10-31T04:34:35;96540.69;;;8.07;100.00
57606;BME280;43430;48.204;11.556;2022-10-31T04:37:00;96543.94;;;8.09;100.00
57606;BME280;43430;48.204;11.556;2022-10-31T04:39:25;96540.69;;;8.07;100.00
57606;BME280;43430;48.204;11.556;2022-10-31T04:41:51;96541.06;;;8.04;100.00
57606;BME280;43430;48.204;11.556;2022-10-31T04:44:16;96543.19;;;7.94;100.00
57606;BME280;43430;48.204;11.556;2022-10-31T04:46:41;96545.44;;;7.97;100.00
57606;BME280;43430;48.204;11.556;2022-10-31T04:49:07;96554.78;;;8.00;100.00
57606;BME280;43430;48.204;11.556;2022-10-31T04:51:32;96553.16;;;7.99;100.00
57606;BME280;43430;48.204;11.556;2022-10-31T04:53:57;96547.28;;;7.97;100.00
57606;BME280;43430;48.204;11.556;2022-10-31T04:56:23;96555.34;;;7.95;100.00
57606;BME280;43430;48.204;11.556;2022-10-31T04:58:48;96549.25;;;7.88;100.00
57606;BME280;43430;48.204;11.556;2022-10-31T05:01:13;96545.16;;;7.85;100.00
57606;BME280;43430;48.204;11.556;2022-10-31T05:03:39;96555.25;;;7.82;100.00
57606;BME280;43430;48.204;11.556;2022-10-31T05:06:07;96552.25;;;7.85;100.00
57606;BME280;43430;48.204;11.556;2022-10-31T05:08:32;96547.41;;;7.89;100.00
57606;BME280;43430;48.204;11.556;2022-10-31T05:11:02;96543.56;;;7.84;100.00
57606;BME280;43430;48.204;11.556;2022-10-31T05:13:27;96543.50;;;7.78;100.00
57606;BME280;43430;48.204;11.556;2022-10-31T05:15:53;96550.16;;;7.80;100.00
57606;BME280;43430;48.204;11.556;2022-10-31T05:18:18;96544.09;;;7.80;100.00
57606;BME280;43430;48.204;11.556;2022-10-31T05:20:44;96544.47;;;7.77;100.00
57606;BME280;43430;48.204;11.556;2022-10-31T05:23:09;96540.88;;;7.78;100.00
57606;BME280;43430;48.204;11.556;2022-10-31T05:25:34;96525.50;;;7.75;100.00
57606;BME280;43430;48.204;11.556;2022-10-31T05:28:00;96517.63;;;7.75;100.00
57606;BME280;43430;48.204;11.556;2022-10-31T05:30:28;96518.00;;;7.72;100.00
57606;BME280;43430;48.204;11.556;2022-10-31T05:32:54;96520.19;;;7.68;100.00
57606;BME280;43430;48.204;11.556;2022-10-31T05:35:27;96528.03;;;7.61;100.00
57606;BME280;43430;48.204;11.556;2022-10-31T05:37:53;96528.44;;;7.65;100.00
57606;BME280;43430;48.204;11.556;2022-10-31T05:40:20;96523.94;;;7.59;100.00
57606;BME280;43430;48.204;11.556;2022-10-31T05:42:46;96520.16;;;7.61;100.00
57606;BME280;43430;48.204;11.556;2022-10-31T05:45:14;96525.03;;;7.65;100.00
57606;BME280;43430;48.204;11.556;2022-10-31T05:47:40;96526.00;;;7.64;100.00
57606;BME280;43430;48.204;11.556;2022-10-31T05:50:06;96526.19;;;7.62;100.00
57606;BME280;43430;48.204;11.556;2022-10-31T05:52:32;96527.00;;;7.63;100.00
57606;BME280;43430;48.204;11.556;2022-10-31T05:54:58;96520.94;;;7.62;100.00
57606;BME280;43430;48.204;11.556;2022-10-31T05:57:23;96516.88;;;7.59;100.00
57606;BME280;43430;48.204;11.556;2022-10-31T05:59:49;96528.53;;;7.50;100.00
57606;BME280;43430;48.204;11.556;2022-10-31T06:02:18;96522.88;;;7.53;100.00
57606;BME280;43430;48.204;11.556;2022-10-31T06:04:43;96520.53;;;7.58;100.00
57606;BME280;43430;48.204;11.556;2022-10-31T06:07:09;96520.09;;;7.55;100.00
57606;BME280;43430;48.204;11.556;2022-10-31T06:09:34;96525.28;;;7.48;100.00
57606;BME280;43430;48.204;11.556;2022-10-31T06:11:59;96532.56;;;7.53;100.00
57606;BME280;43430;48.204;11.556;2022-10-31T06:14:24;96538.09;;;7.58;100.00
57606;BME280;43430;48.204;11.556;2022-10-31T06:16:50;96529.41;;;7.57;100.00
57606;BME280;43430;48.204;11.556;2022-10-31T06:19:15;96529.41;;;7.57;100.00
57606;BME280;43430;48.204;11.556;2022-10-31T06:21:40;96539.91;;;7.57;100.00
57606;BME280;43430;48.204;11.556;2022-10-31T06:24:06;96534.66;;;7.57;100.00
57606;BME280;43430;48.204;11.556;2022-10-31T06:26:31;96536.25;;;7.58;100.00
57606;BME280;43430;48.204;11.556;2022-10-31T06:28:56;96547.44;;;7.67;100.00
57606;BME280;43430;48.204;11.556;2022-10-31T06:31:22;96541.63;;;7.72;100.00
57606;BME280;43430;48.204;11.556;2022-10-31T06:33:47;96539.19;;;7.70;100.00
57606;BME280;43430;48.204;11.556;2022-10-31T06:36:12;96542.50;;;7.79;100.00
57606;BME280;43430;48.204;11.556;2022-10-31T06:38:38;96528.19;;;7.81;100.00
57606;BME280;43430;48.204;11.556;2022-10-31T06:41:04;96528.34;;;7.80;100.00
57606;BME280;43430;48.204;11.556;2022-10-31T06:43:30;96527.13;;;7.76;100.00
57606;BME280;43430;48.204;11.556;2022-10-31T06:45:55;96527.56;;;7.79;100.00
57606;BME280;43430;48.204;11.556;2022-10-31T06:48:21;96535.53;;;7.93;100.00
57606;BME280;43430;48.204;11.556;2022-10-31T06:50:46;96537.03;;;8.02;100.00
57606;BME280;43430;48.204;11.556;2022-10-31T06:53:12;96532.00;;;8.07;100.00
57606;BME280;43430;48.204;11.556;2022-10-31T06:55:39;96536.66;;;8.12;100.00
57606;BME280;43430;48.204;11.556;2022-10-31T06:58:05;96536.91;;;8.17;100.00
57606;BME280;43430;48.204;11.556;2022-10-31T07:00:30;96540.38;;;8.24;100.00
57606;BME280;43430;48.204;11.556;2022-10-31T07:03:05;96537.97;;;8.29;100.00
57606;BME280;43430;48.204;11.556;2022-10-31T07:05:31;96541.72;;;8.41;100.00
57606;BME280;43430;48.204;11.556;2022-10-31T07:08:02;96544.56;;;8.46;100.00
57606;BME280;43430;48.204;11.556;2022-10-31T07:10:29;96539.56;;;8.51;100.00
57606;BME280;43430;48.204;11.556;2022-10-31T07:13:03;96549.31;;;8.58;100.00
57606;BME280;43430;48.204;11.556;2022-10-31T07:15:33;96542.25;;;8.65;100.00
57606;BME280;43430;48.204;11.556;2022-10-31T07:18:03;96549.16;;;8.72;100.00
57606;BME280;43430;48.204;11.556;2022-10-31T07:20:29;96550.41;;;8.83;100.00
57606;BME280;43430;48.204;11.556;2022-10-31T07:22:54;96552.69;;;8.93;100.00
57606;BME280;43430;48.204;11.556;2022-10-31T07:25:20;96543.63;;;9.02;100.00
57606;BME280;43430;48.204;11.556;2022-10-31T07:27:46;96545.28;;;9.16;100.00
57606;BME280;43430;48.204;11.556;2022-10-31T07:30:12;96549.16;;;9.27;100.00
57606;BME280;43430;48.204;11.556;2022-10-31T07:32:48;96539.63;;;9.39;100.00
57606;BME280;43430;48.204;11.556;2022-10-31T07:35:25;96540.06;;;9.43;100.00
57606;BME280;43430;48.204;11.556;2022-10-31T07:37:51;96549.00;;;9.55;100.00
57606;BME280;43430;48.204;11.556;2022-10-31T07:40:17;96540.31;;;9.68;100.00
57606;BME280;43430;48.204;11.556;2022-10-31T07:42:45;96532.00;;;9.84;100.00
57606;BME280;43430;48.204;11.556;2022-10-31T07:45:13;96527.94;;;10.02;100.00
57606;BME280;43430;48.204;11.556;2022-10-31T07:47:46;96535.63;;;10.10;100.00
57606;BME280;43430;48.204;11.556;2022-10-31T07:50:17;96539.25;;;10.22;100.00
57606;BME280;43430;48.204;11.556;2022-10-31T07:52:43;96531.34;;;10.35;100.00
57606;BME280;43430;48.204;11.556;2022-10-31T07:55:09;96521.41;;;10.44;100.00
57606;BME280;43430;48.204;11.556;2022-10-31T07:57:34;96527.84;;;10.55;100.00
57606;BME280;43430;48.204;11.556;2022-10-31T08:00:05;96525.97;;;10.75;100.00
57606;BME280;43430;48.204;11.556;2022-10-31T08:02:31;96520.41;;;10.90;100.00
57606;BME280;43430;48.204;11.556;2022-10-31T08:04:57;96516.06;;;11.09;100.00
57606;BME280;43430;48.204;11.556;2022-10-31T08:07:22;96508.06;;;11.22;100.00
57606;BME280;43430;48.204;11.556;2022-10-31T08:09:48;96500.47;;;11.39;100.00
57606;BME280;43430;48.204;11.556;2022-10-31T08:12:13;96492.97;;;11.61;100.00
57606;BME280;43430;48.204;11.556;2022-10-31T08:14:38;96483.25;;;11.80;100.00
57606;BME280;43430;48.204;11.556;2022-10-31T08:17:04;96478.63;;;12.00;100.00
57606;BME280;43430;48.204;11.556;2022-10-31T08:19:29;96471.97;;;12.16;100.00
57606;BME280;43430;48.204;11.556;2022-10-31T08:21:54;96473.25;;;12.32;100.00
57606;BME280;43430;48.204;11.556;2022-10-31T08:24:24;96471.72;;;12.43;100.00
57606;BME280;43430;48.204;11.556;2022-10-31T08:26:49;96465.78;;;12.59;100.00
57606;BME280;43430;48.204;11.556;2022-10-31T08:29:14;96454.03;;;12.73;100.00
57606;BME280;43430;48.204;11.556;2022-10-31T08:31:41;96448.69;;;12.92;100.00
57606;BME280;43430;48.204;11.556;2022-10-31T08:34:07;96443.31;;;12.98;100.00
57606;BME280;43430;48.204;11.556;2022-10-31T08:36:32;96449.31;;;13.05;100.00
57606;BME280;43430;48.204;11.556;2022-10-31T08:38:58;96450.63;;;13.15;100.00
57606;BME280;43430;48.204;11.556;2022-10-31T08:41:23;96442.59;;;13.21;100.00
57606;BME280;43430;48.204;11.556;2022-10-31T08:43:48;96437.00;;;13.29;100.00
57606;BME280;43430;48.204;11.556;2022-10-31T08:46:14;96437.34;;;13.45;100.00
57606;BME280;43430;48.204;11.556;2022-10-31T08:48:39;96432.41;;;13.48;100.00
57606;BME280;43430;48.204;11.556;2022-10-31T08:51:05;96430.94;;;13.64;100.00
57606;BME280;43430;48.204;11.556;2022-10-31T08:53:31;96416.75;;;13.82;100.00
57606;BME280;43430;48.204;11.556;2022-10-31T08:55:56;96414.13;;;13.94;100.00
57606;BME280;43430;48.204;11.556;2022-10-31T08:58:22;96405.91;;;13.95;100.00
57606;BME280;43430;48.204;11.556;2022-10-31T09:00:50;96401.63;;;14.06;100.00
57606;BME280;43430;48.204;11.556;2022-10-31T09:03:24;96399.31;;;14.21;100.00
57606;BME280;43430;48.204;11.556;2022-10-31T09:05:53;96395.50;;;14.17;100.00
57606;BME280;43430;48.204;11.556;2022-10-31T09:08:19;96386.16;;;14.27;100.00
57606;BME280;43430;48.204;11.556;2022-10-31T09:10:45;96384.06;;;14.29;100.00
57606;BME280;43430;48.204;11.556;2022-10-31T09:13:13;96380.91;;;14.43;100.00
57606;BME280;43430;48.204;11.556;2022-10-31T09:15:40;96377.09;;;14.51;100.00
57606;BME280;43430;48.204;11.556;2022-10-31T09:18:07;96382.03;;;14.47;100.00
57606;BME280;43430;48.204;11.556;2022-10-31T09:20:34;96372.22;;;14.48;100.00
57606;BME280;43430;48.204;11.556;2022-10-31T09:23:02;96379.41;;;14.47;100.00
57606;BME280;43430;48.204;11.556;2022-10-31T09:25:29;96373.03;;;14.48;100.00
57606;BME280;43430;48.204;11.556;2022-10-31T09:27:58;96365.88;;;14.61;100.00
57606;BME280;43430;48.204;11.556;2022-10-31T09:30:24;96357.84;;;14.72;100.00
57606;BME280;43430;48.204;11.556;2022-10-31T09:32:57;96354.66;;;14.70;100.00
57606;BME280;43430;48.204;11.556;2022-10-31T09:35:24;96351.63;;;14.95;100.00
57606;BME280;43430;48.204;11.556;2022-10-31T09:38:00;96351.91;;;15.11;100.00
57606;BME280;43430;48.204;11.556;2022-10-31T09:48:59;96315.44;;;15.62;100.00
57606;BME280;43430;48.204;11.556;2022-10-31T09:51:37;96323.84;;;15.71;100.00
57606;BME280;43430;48.204;11.556;2022-10-31T09:54:18;96320.44;;;15.75;100.00
57606;BME280;43430;48.204;11.556;2022-10-31T09:56:45;96313.81;;;15.78;100.00
57606;BME280;43430;48.204;11.556;2022-10-31T09:59:37;96316.44;;;15.73;100.00
57606;BME280;43430;48.204;11.556;2022-10-31T10:04:46;96315.81;;;15.87;100.00
57606;BME280;43430;48.204;11.556;2022-10-31T10:10:25;96305.44;;;16.08;100.00
57606;BME280;43430;48.204;11.556;2022-10-31T10:13:08;96308.94;;;16.13;100.00
57606;BME280;43430;48.204;11.556;2022-10-31T10:23:43;96295.53;;;16.52;100.00
57606;BME280;43430;48.204;11.556;2022-10-31T10:26:17;96286.78;;;16.57;100.00
57606;BME280;43430;48.204;11.556;2022-10-31T10:28:48;96283.44;;;16.67;100.00
57606;BME280;43430;48.204;11.556;2022-10-31T10:31:16;96293.50;;;16.87;100.00
57606;BME280;43430;48.204;11.556;2022-10-31T10:34:08;96278.81;;;16.84;100.00
57606;BME280;43430;48.204;11.556;2022-10-31T10:36:42;96271.69;;;16.90;100.00
57606;BME280;43430;48.204;11.556;2022-10-31T10:39:17;96267.75;;;16.97;100.00
57606;BME280;43430;48.204;11.556;2022-10-31T10:41:48;96271.44;;;16.96;100.00
57606;BME280;43430;48.204;11.556;2022-10-31T10:44:32;96265.16;;;17.07;100.00
57606;BME280;43430;48.204;11.556;2022-10-31T10:47:16;96272.63;;;17.11;100.00
57606;BME280;43430;48.204;11.556;2022-10-31T10:50:09;96262.47;;;17.07;100.00
57606;BME280;43430;48.204;11.556;2022-10-31T10:52:47;96263.38;;;17.23;100.00
57606;BME280;43430;48.204;11.556;2022-10-31T10:58:01;96258.94;;;17.39;100.00
57606;BME280;43430;48.204;11.556;2022-10-31T11:00:32;96252.75;;;17.28;100.00
57606;BME280;43430;48.204;11.556;2022-10-31T11:02:59;96258.09;;;17.28;100.00
57606;BME280;43430;48.204;11.556;2022-10-31T11:05:56;96241.31;;;17.28;100.00
57606;BME280;43430;48.204;11.556;2022-10-31T11:08:34;96249.31;;;17.28;100.00
57606;BME280;43430;48.204;11.556;2022-10-31T11:13:27;96238.94;;;17.37;100.00
57606;BME280;43430;48.204;11.556;2022-10-31T11:16:06;96241.31;;;17.28;100.00
57606;BME280;43430;48.204;11.556;2022-10-31T11:18:36;96233.09;;;17.35;100.00
57606;BME280;43430;48.204;11.556;2022-10-31T11:21:03;96231.16;;;17.30;100.00
57606;BME280;43430;48.204;11.556;2022-10-31T11:23:30;96227.19;;;17.32;100.00
57606;BME280;43430;48.204;11.556;2022-10-31T11:28:26;96222.81;;;17.59;100.00
57606;BME280;43430;48.204;11.556;2022-10-31T11:30:55;96224.13;;;17.56;100.00
57606;BME280;43430;48.204;11.556;2022-10-31T11:35:49;96207.13;;;17.72;100.00
57606;BME280;43430;48.204;11.556;2022-10-31T11:38:17;96208.78;;;17.84;100.00
57606;BME280;43430;48.204;11.556;2022-10-31T11:40:54;96206.94;;;17.84;100.00
57606;BME280;43430;48.204;11.556;2022-10-31T11:43:21;96197.59;;;17.92;100.00
57606;BME280;43430;48.204;11.556;2022-10-31T11:45:47;96193.91;;;17.98;100.00
57606;BME280;43430;48.204;11.556;2022-10-31T11:48:19;96187.78;;;18.08;100.00
57606;BME280;43430;48.204;11.556;2022-10-31T11:50:55;96185.38;;;18.16;100.00
57606;BME280;43430;48.204;11.556;2022-10-31T11:53:28;96176.56;;;18.16;100.00
57606;BME280;43430;48.204;11.556;2022-10-31T11:56:04;96175.53;;;18.22;100.00
57606;BME280;43430;48.204;11.556;2022-10-31T11:58:30;96169.66;;;18.25;100.00
57606;BME280;43430;48.204;11.556;2022-10-31T12:00:57;96172.84;;;18.22;100.00
57606;BME280;43430;48.204;11.556;2022-10-31T12:06:11;96172.34;;;18.25;100.00
57606;BME280;43430;48.204;11.556;2022-10-31T12:08:39;96169.16;;;18.38;100.00
57606;BME280;43430;48.204;11.556;2022-10-31T12:17:22;96157.91;;;18.36;100.00
57606;BME280;43430;48.204;11.556;2022-10-31T12:27:59;96160.59;;;18.21;100.00
57606;BME280;43430;48.204;11.556;2022-10-31T12:33:37;96156.84;;;18.12;100.00
57606;BME280;43430;48.204;11.556;2022-10-31T12:52:27;96131.50;;;18.14;100.00
57606;BME280;43430;48.204;11.556;2022-10-31T13:00:42;96111.44;;;18.17;100.00
57606;BME280;43430;48.204;11.556;2022-10-31T13:05:49;96112.53;;;18.21;100.00
57606;BME280;43430;48.204;11.556;2022-10-31T13:08:36;96105.59;;;18.25;100.00
57606;BME280;43430;48.204;11.556;2022-10-31T13:13:34;96097.59;;;18.45;100.00
57606;BME280;43430;48.204;11.556;2022-10-31T13:16:18;96097.31;;;18.42;100.00
57606;BME280;43430;48.204;11.556;2022-10-31T13:18:48;96101.03;;;18.41;100.00
57606;BME280;43430;48.204;11.556;2022-10-31T13:21:23;96102.94;;;18.25;100.00
57606;BME280;43430;48.204;11.556;2022-10-31T13:23:50;96093.84;;;18.26;100.00
57606;BME280;43430;48.204;11.556;2022-10-31T13:26:49;96099.44;;;18.19;100.00
57606;BME280;43430;48.204;11.556;2022-10-31T13:31:42;96093.06;;;18.15;100.00
57606;BME280;43430;48.204;11.556;2022-10-31T13:34:46;96089.31;;;18.06;100.00
57606;BME280;43430;48.204;11.556;2022-10-31T13:37:32;96084.50;;;18.03;100.00
57606;BME280;43430;48.204;11.556;2022-10-31T13:45:14;96080.22;;;17.87;100.00
57606;BME280;43430;48.204;11.556;2022-10-31T13:47:41;96082.66;;;17.93;100.00
57606;BME280;43430;48.204;11.556;2022-10-31T13:50:21;96076.50;;;17.83;100.00
57606;BME280;43430;48.204;11.556;2022-10-31T13:52:47;96070.34;;;17.77;100.00
57606;BME280;43430;48.204;11.556;2022-10-31T13:55:35;96079.97;;;17.83;100.00
57606;BME280;43430;48.204;11.556;2022-10-31T13:58:04;96092.97;;;17.74;100.00
57606;BME280;43430;48.204;11.556;2022-10-31T14:00:31;96089.50;;;17.69;100.00
57606;BME280;43430;48.204;11.556;2022-10-31T14:03:00;96082.00;;;17.61;100.00
57606;BME280;43430;48.204;11.556;2022-10-31T14:05:33;96085.75;;;17.60;100.00
57606;BME280;43430;48.204;11.556;2022-10-31T14:08:01;96083.06;;;17.54;100.00
57606;BME280;43430;48.204;11.556;2022-10-31T14:13:03;96086.78;;;17.53;100.00
57606;BME280;43430;48.204;11.556;2022-10-31T14:15:31;96081.97;;;17.50;100.00
57606;BME280;43430;48.204;11.556;2022-10-31T14:26:29;96070.78;;;17.43;100.00
57606;BME280;43430;48.204;11.556;2022-10-31T14:29:01;96071.53;;;17.33;100.00
57606;BME280;43430;48.204;11.556;2022-10-31T14:31:42;96078.22;;;17.31;100.00
57606;BME280;43430;48.204;11.556;2022-10-31T14:51:18;96077.25;;;16.90;100.00
57606;BME280;43430;48.204;11.556;2022-10-31T14:53:57;96064.72;;;16.95;100.00
57606;BME280;43430;48.204;11.556;2022-10-31T14:56:35;96075.63;;;16.89;100.00
57606;BME280;43430;48.204;11.556;2022-10-31T14:59:08;96078.00;;;16.85;100.00
57606;BME280;43430;48.204;11.556;2022-10-31T15:01:36;96070.25;;;16.78;100.00
57606;BME280;43430;48.204;11.556;2022-10-31T15:04:23;96070.75;;;16.75;100.00
57606;BME280;43430;48.204;11.556;2022-10-31T15:07:15;96075.25;;;16.70;100.00
57606;BME280;43430;48.204;11.556;2022-10-31T15:09:40;96065.59;;;16.64;100.00